Le Roy, Illinois
Current Conditions -  °F | °C
As of 7:56 PM on Friday 24 Oct 2014 (Local Time) from KBMI Reporting Station
Haze Haze  
Wind Chill: 56°   Ceiling: Unl
Heat Index: 56°   Visibility: 6mi
Dew Point: 54°   Wind: 10mph
Humidity: 93%   Direction: 180°S
Pressure: 29.99"   Gusts: NA
Location:  40.35°N, 88.76°W
Report Text: KBMI 250056Z 18009KT 6SM BR CLR 13/12 A2999 RMK AO2 T01330122 SLP158
Loading
Personal Weather Stations






























Interactive Weather Map
Tropical Storm Tracking
New forecast layout! Learn more

10-Day Weather Forecast

Advertisements
Track Severe Weather on mobile